Címlap Spotter Aktuális időjárásjelentés, előrejelzés Debrecen Airport (METAR/TAF LHDC/DEB)

Aktuális időjárásjelentés, előrejelzés Debrecen Airport (METAR/TAF LHDC/DEB)

Aktuális szöveges időjárásjelentés / METAR DEB/LHDC és 24 órás szöveges időjárás-előrejelzés / TAF DEB/LHDCDebrecen Airport

Available data for LHDC from the past 6 hours
Metar
LHDC 131645Z 00000KT 7000 FEW036 M01/M03 Q1021 NOSIG

16:45 UTC

Wind: 0° 0kt

Visibility: 7000 m

Sky: FEW 3600 ft

Temp: -1 deg C / 30.2 deg F

Dewpoint: -3 deg C / 26.6 deg F

Pressure: 1021 hPa

TAF
TAF LHDC 131415Z 1315/1324 34005KT 9999 FEW015 BKN040 BECMG 1315/1318 4000 BR SCT020 BKN040 TEMPO 1319/1324 1500 FZBCFG SCT005 BKN015

Európa műholdkép

Data is taken from the National Weather Service at NOAA. Satelite image by AustroControl & Meteo-Mc. Only for spotters, do not use for real flight!

A METAR és a TAF adatok a National Weather Service adatbázisából származnak. Az oldalon közölt adatok tájékoztató jellegűek, az oldal üzemeltetője nem vállal felelősséget ezek esetleges pontatlanságáért. Ne használd valós repüléshez!

Néhány hasznos infó, mielőtt repülőre szállsz